Wetterdaten: Woche 18.04.16 - 24.04.16 (KW16)
Datum Zeit Auen-Temp. Temp gefhlt Luftfeuchte Luftdruck Regen Wind Richtung Sonnenschein Taupunkt Windben
18.04.2016 00:00 4,4 C 4,2 C 90 % 1015,1 hPa 0,7 mm 0,2 km/h (0 Bft) N 0,00 h 3,0 C 0,8 km/h (0 Bft)
18.04.2016 01:00 4,3 C 4,1 C 91 % 1015,4 hPa 0,7 mm 0,2 km/h (0 Bft) N 0,00 h 2,9 C 0,4 km/h (0 Bft)
18.04.2016 02:00 4,0 C 3,8 C 91 % 1015,2 hPa 0,7 mm 0,4 km/h (0 Bft) NW 0,00 h 2,7 C 0,8 km/h (0 Bft)
18.04.2016 03:00 3,9 C 3,8 C 88 % 1015,0 hPa 0,7 mm 0,0 km/h (0 Bft) N 0,00 h 2,1 C 0,0 km/h (0 Bft)
18.04.2016 04:00 3,9 C 3,7 C 90 % 1015,1 hPa 0,0 mm 0,7 km/h (0 Bft) NW 0,00 h 2,5 C 2,2 km/h (1 Bft)
18.04.2016 05:00 4,2 C 4,1 C 91 % 1015,3 hPa 0,7 mm 1,1 km/h (0 Bft) W 0,00 h 2,8 C 1,1 km/h (1 Bft)
18.04.2016 06:00 4,2 C 4,1 C 91 % 1015,8 hPa 0,0 mm 0,0 km/h (0 Bft) N 0,00 h 2,9 C 0,0 km/h (0 Bft)
18.04.2016 07:00 4,4 C 4,4 C 88 % 1016,3 hPa 0,0 mm 0,8 km/h (0 Bft) NO 0,00 h 2,6 C 1,4 km/h (1 Bft)
18.04.2016 08:00 4,7 C 4,9 C 88 % 1016,5 hPa 0,0 mm 3,7 km/h (1 Bft) NO 0,00 h 2,9 C 5,5 km/h (1 Bft)
18.04.2016 09:00 5,2 C 5,6 C 88 % 1016,3 hPa 0,0 mm 5,6 km/h (1 Bft) NO 0,00 h 3,4 C 6,9 km/h (2 Bft)
18.04.2016 10:00 5,7 C 6,4 C 87 % 1016,6 hPa 0,0 mm 5,9 km/h (2 Bft) NO 0,00 h 3,8 C 7,5 km/h (2 Bft)
18.04.2016 11:00 5,9 C 6,7 C 87 % 1016,8 hPa 0,0 mm 8,1 km/h (2 Bft) NO 0,00 h 3,9 C 9,0 km/h (2 Bft)
18.04.2016 12:00 5,9 C 6,0 C 86 % 1016,9 hPa 0,0 mm 9,2 km/h (2 Bft) O-NO 0,00 h 3,7 C 12,3 km/h (3 Bft)
18.04.2016 13:00 5,9 C 6,0 C 86 % 1016,8 hPa 0,0 mm 8,2 km/h (2 Bft) NO 0,00 h 3,8 C 11,3 km/h (2 Bft)
18.04.2016 14:00 6,2 C 6,3 C 86 % 1016,8 hPa 0,0 mm 8,5 km/h (2 Bft) N-NO 0,00 h 4,0 C 12,1 km/h (2 Bft)
18.04.2016 15:00 6,0 C 6,2 C 86 % 1016,7 hPa 0,0 mm 6,7 km/h (2 Bft) O-NO 0,00 h 3,8 C 7,2 km/h (2 Bft)
18.04.2016 16:00 6,2 C 6,2 C 86 % 1016,5 hPa 1,4 mm 5,9 km/h (2 Bft) NO 0,00 h 4,0 C 4,8 km/h (1 Bft)
18.04.2016 17:00 6,4 C 6,3 C 86 % 1016,7 hPa 0,0 mm 6,6 km/h (2 Bft) O-NO 0,00 h 4,3 C 8,6 km/h (2 Bft)
18.04.2016 18:00 6,2 C 5,9 C 88 % 1017,1 hPa 0,7 mm 7,7 km/h (2 Bft) N-NO 0,00 h 4,3 C 10,8 km/h (2 Bft)
18.04.2016 19:00 5,7 C 5,6 C 89 % 1018,0 hPa 3,4 mm 5,0 km/h (1 Bft) W 0,00 h 4,0 C 6,2 km/h (2 Bft)
18.04.2016 20:00 5,2 C 5,0 C 90 % 1018,9 hPa 2,1 mm 5,4 km/h (1 Bft) W-SW 0,00 h 3,7 C 4,9 km/h (1 Bft)
18.04.2016 21:00 4,8 C 4,7 C 90 % 1020,0 hPa 1,4 mm 3,8 km/h (1 Bft) S 0,00 h 3,3 C 5,0 km/h (1 Bft)
18.04.2016 22:00 4,6 C 4,4 C 91 % 1020,4 hPa 0,7 mm 2,2 km/h (1 Bft) S-SW 0,00 h 3,2 C 3,7 km/h (1 Bft)
18.04.2016 23:00 3,8 C 3,6 C 90 % 1021,2 hPa 0,0 mm 4,8 km/h (1 Bft) W-SW 0,00 h 2,2 C 7,1 km/h (2 Bft)
19.04.2016 00:00 3,5 C 3,1 C 90 % 1021,5 hPa 0,0 mm 6,7 km/h (2 Bft) W-SW 0,00 h 2,0 C 8,8 km/h (2 Bft)
19.04.2016 01:00 3,7 C 3,2 C 90 % 1021,8 hPa 0,0 mm 7,0 km/h (2 Bft) SW 0,00 h 2,2 C 7,3 km/h (2 Bft)
19.04.2016 02:00 3,6 C 3,4 C 90 % 1021,7 hPa 0,0 mm 4,6 km/h (1 Bft) W-SW 0,00 h 2,2 C 6,9 km/h (2 Bft)
19.04.2016 03:00 3,5 C 3,3 C 90 % 1021,6 hPa 0,0 mm 2,9 km/h (1 Bft) S 0,00 h 2,0 C 2,9 km/h (1 Bft)
19.04.2016 04:00 3,5 C 3,3 C 91 % 1021,8 hPa 0,0 mm 1,3 km/h (1 Bft) S-SO 0,00 h 2,1 C 1,0 km/h (0 Bft)
19.04.2016 05:00 3,3 C 3,2 C 91 % 1022,0 hPa 0,0 mm 0,5 km/h (0 Bft) SO 0,00 h 2,0 C 0,9 km/h (0 Bft)
19.04.2016 06:00 3,4 C 3,2 C 92 % 1022,5 hPa 0,0 mm 0,3 km/h (0 Bft) N 0,00 h 2,2 C 0,7 km/h (0 Bft)
19.04.2016 07:00 3,6 C 3,6 C 89 % 1022,9 hPa 0,0 mm 0,6 km/h (0 Bft) O-NO 0,00 h 1,9 C 1,1 km/h (0 Bft)
19.04.2016 08:00 4,7 C 6,0 C 88 % 1023,1 hPa 0,0 mm 1,4 km/h (1 Bft) W-SW 0,00 h 2,9 C 2,3 km/h (1 Bft)
19.04.2016 09:00 6,5 C 9,4 C 86 % 1023,4 hPa 0,0 mm 4,8 km/h (1 Bft) NW 0,25 h 4,3 C 6,1 km/h (2 Bft)
19.04.2016 10:00 7,0 C 9,8 C 80 % 1023,8 hPa 0,0 mm 1,6 km/h (1 Bft) S 0,25 h 3,8 C 1,4 km/h (1 Bft)
19.04.2016 11:00 8,7 C 13,8 C 70 % 1024,5 hPa 0,0 mm 4,8 km/h (1 Bft) NO 0,75 h 3,6 C 5,5 km/h (1 Bft)
19.04.2016 12:00 9,8 C 14,4 C 64 % 1025,0 hPa 0,0 mm 6,2 km/h (2 Bft) NW 0,58 h 3,3 C 8,1 km/h (2 Bft)
19.04.2016 13:00 10,1 C 13,7 C 61 % 1024,4 hPa 0,0 mm 6,7 km/h (2 Bft) N-NW 0,58 h 2,8 C 8,5 km/h (2 Bft)
19.04.2016 14:00 10,6 C 13,2 C 60 % 1024,0 hPa 0,0 mm 6,3 km/h (2 Bft) NW 0,25 h 3,1 C 8,0 km/h (2 Bft)
19.04.2016 15:00 11,3 C 16,5 C 57 % 1023,6 hPa 0,0 mm 10,3 km/h (2 Bft) NW 0,83 h 3,2 C 15,3 km/h (3 Bft)
19.04.2016 16:00 12,1 C 16,3 C 54 % 1023,0 hPa 0,0 mm 8,7 km/h (2 Bft) NW 0,75 h 3,1 C 8,7 km/h (2 Bft)
19.04.2016 17:00 11,8 C 13,9 C 54 % 1022,6 hPa 0,0 mm 11,0 km/h (2 Bft) NW 0,25 h 2,8 C 12,4 km/h (3 Bft)
19.04.2016 18:00 10,6 C 11,1 C 55 % 1022,7 hPa 0,0 mm 7,1 km/h (2 Bft) NW 0,00 h 1,9 C 8,0 km/h (2 Bft)
19.04.2016 19:00 9,7 C 9,7 C 57 % 1022,8 hPa 0,0 mm 4,1 km/h (1 Bft) W 0,00 h 1,6 C 5,5 km/h (1 Bft)
19.04.2016 20:00 8,0 C 8,0 C 62 % 1023,1 hPa 0,0 mm 2,5 km/h (1 Bft) S 0,00 h 1,1 C 4,1 km/h (1 Bft)
19.04.2016 21:00 6,5 C 6,6 C 71 % 1023,5 hPa 0,0 mm 1,4 km/h (1 Bft) S-SO 0,00 h 1,7 C 1,6 km/h (1 Bft)
19.04.2016 22:00 3,6 C 5,7 C 76 % 1024,0 hPa 0,0 mm 0,6 km/h (0 Bft) O-NO 0,00 h -0,3 C 0,2 km/h (0 Bft)
19.04.2016 23:00 3,5 C 5,3 C 75 % 1024,5 hPa 0,0 mm 0,6 km/h (0 Bft) S-SO 0,00 h -0,5 C 1,0 km/h (0 Bft)
20.04.2016 00:00 5,0 C 4,9 C 78 % 1024,7 hPa 0,0 mm 0,1 km/h (0 Bft) N 0,00 h 1,4 C 0,0 km/h (0 Bft)
20.04.2016 01:00 3,4 C 3,2 C 80 % 1024,6 hPa 0,0 mm 0,5 km/h (0 Bft) S-SO 0,00 h 0,3 C 0,7 km/h (0 Bft)
20.04.2016 02:00 2,9 C 2,7 C 83 % 1024,5 hPa 0,0 mm 0,6 km/h (0 Bft) NO 0,00 h 0,3 C 0,3 km/h (0 Bft)
20.04.2016 03:00 2,3 C 1,8 C 85 % 1024,3 hPa 0,0 mm 0,0 km/h (0 Bft) N 0,00 h 0,0 C 0,0 km/h (0 Bft)
20.04.2016 04:00 0,7 C 0,6 C 86 % 1024,2 hPa 0,0 mm 0,6 km/h (0 Bft) S-SO 0,00 h -1,4 C 0,6 km/h (0 Bft)
20.04.2016 05:00 0,0 C 0,1 C 88 % 1024,2 hPa 0,0 mm 0,3 km/h (0 Bft) N 0,00 h -1,7 C 0,6 km/h (0 Bft)
20.04.2016 06:00 -0,1 C -0,5 C 89 % 1024,5 hPa 0,0 mm 0,1 km/h (0 Bft) N 0,00 h -1,7 C 0,0 km/h (0 Bft)
20.04.2016 07:00 0,5 C 2,8 C 87 % 1025,0 hPa 0,0 mm 0,2 km/h (0 Bft) N 0,42 h -1,3 C 0,3 km/h (0 Bft)
20.04.2016 08:00 5,7 C 14,1 C 83 % 1025,1 hPa 0,0 mm 0,0 km/h (0 Bft) N 1,00 h 3,1 C 0,0 km/h (0 Bft)
20.04.2016 09:00 8,5 C 14,0 C 70 % 1026,3 hPa 0,0 mm 7,9 km/h (2 Bft) NO 1,00 h 3,2 C 12,5 km/h (3 Bft)
20.04.2016 10:00 9,5 C 13,9 C 63 % 1027,5 hPa 0,0 mm 10,7 km/h (2 Bft) O-NO 1,00 h 2,8 C 14,5 km/h (3 Bft)
20.04.2016 11:00 11,0 C 15,2 C 60 % 1028,1 hPa 0,0 mm 11,2 km/h (2 Bft) NO 0,92 h 3,4 C 16,1 km/h (3 Bft)
20.04.2016 12:00 12,0 C 15,9 C 57 % 1028,2 hPa 0,0 mm 9,7 km/h (2 Bft) O-NO 0,75 h 3,7 C 11,4 km/h (2 Bft)
20.04.2016 13:00 13,1 C 16,2 C 54 % 1027,6 hPa 0,0 mm 11,4 km/h (2 Bft) O-NO 0,08 h 4,1 C 14,4 km/h (3 Bft)
20.04.2016 14:00 13,9 C 17,7 C 52 % 1026,9 hPa 0,0 mm 10,9 km/h (2 Bft) N-NO 0,17 h 4,1 C 13,0 km/h (3 Bft)
20.04.2016 15:00 14,5 C 18,8 C 49 % 1026,2 hPa 0,0 mm 8,9 km/h (2 Bft) O-NO 0,92 h 3,9 C 13,1 km/h (3 Bft)
20.04.2016 16:00 14,3 C 18,4 C 46 % 1025,3 hPa 0,0 mm 10,0 km/h (2 Bft) O-NO 0,92 h 3,0 C 10,4 km/h (2 Bft)
20.04.2016 17:00 13,8 C 15,4 C 45 % 1024,9 hPa 0,0 mm 11,0 km/h (2 Bft) O-NO 0,00 h 2,2 C 12,5 km/h (3 Bft)
20.04.2016 18:00 13,3 C 14,6 C 46 % 1024,7 hPa 0,0 mm 10,5 km/h (2 Bft) NO 0,00 h 1,9 C 14,3 km/h (3 Bft)
20.04.2016 19:00 11,8 C 13,7 C 50 % 1024,3 hPa 0,0 mm 5,7 km/h (1 Bft) O-SO 0,17 h 1,7 C 7,0 km/h (2 Bft)
20.04.2016 20:00 9,0 C 9,0 C 57 % 1024,4 hPa 0,0 mm 1,0 km/h (0 Bft) SO 0,00 h 1,0 C 2,0 km/h (1 Bft)
20.04.2016 21:00 5,8 C 5,2 C 64 % 1024,6 hPa 0,0 mm 0,0 km/h (0 Bft) N 0,00 h -0,6 C 0,0 km/h (0 Bft)
20.04.2016 22:00 4,1 C 3,5 C 72 % 1024,5 hPa 0,0 mm 0,0 km/h (0 Bft) N 0,00 h -0,6 C 0,0 km/h (0 Bft)
20.04.2016 23:00 2,6 C 2,2 C 75 % 1024,0 hPa 0,0 mm 0,0 km/h (0 Bft) N 0,00 h -1,3 C 0,0 km/h (0 Bft)
21.04.2016 00:00 2,0 C 1,6 C 78 % 1023,8 hPa 0,0 mm 0,0 km/h (0 Bft) N 0,00 h -1,4 C 0,0 km/h (0 Bft)
21.04.2016 01:00 1,5 C 1,9 C 81 % 1023,3 hPa 0,0 mm 2,1 km/h (1 Bft) O-SO 0,00 h -1,3 C 3,1 km/h (1 Bft)
21.04.2016 02:00 0,0 C 1,1 C 86 % 1022,7 hPa 0,0 mm 0,1 km/h (0 Bft) N 0,00 h -2,1 C 0,0 km/h (0 Bft)
21.04.2016 03:00 -0,0 C -0,1 C 87 % 1022,2 hPa 0,0 mm 0,2 km/h (0 Bft) N 0,00 h -2,0 C 0,0 km/h (0 Bft)
21.04.2016 04:00 -0,1 C -0,3 C 89 % 1021,6 hPa 0,0 mm 0,3 km/h (0 Bft) S-SO 0,00 h -1,7 C 1,2 km/h (1 Bft)
21.04.2016 05:00 -0,7 C -1,1 C 89 % 1021,0 hPa 0,0 mm 0,3 km/h (0 Bft) N-NW 0,00 h -2,3 C 0,3 km/h (0 Bft)
21.04.2016 06:00 -0,9 C -1,2 C 88 % 1021,0 hPa 0,0 mm 0,1 km/h (0 Bft) N 0,00 h -2,6 C 0,3 km/h (0 Bft)
21.04.2016 07:00 0,4 C 4,1 C 87 % 1021,5 hPa 0,0 mm 0,0 km/h (0 Bft) N 0,42 h -1,5 C 0,0 km/h (0 Bft)
21.04.2016 08:00 7,3 C 14,7 C 79 % 1021,7 hPa 0,0 mm 2,4 km/h (1 Bft) NW 1,00 h 3,9 C 4,0 km/h (1 Bft)
21.04.2016 09:00 11,2 C 17,6 C 69 % 1022,9 hPa 0,0 mm 5,4 km/h (1 Bft) NW 1,00 h 5,7 C 7,3 km/h (2 Bft)
21.04.2016 10:00 13,9 C 20,6 C 59 % 1023,6 hPa 0,0 mm 3,5 km/h (1 Bft) N-NO 1,00 h 6,0 C 5,8 km/h (2 Bft)
21.04.2016 11:00 16,0 C 21,5 C 52 % 1023,5 hPa 0,0 mm 4,9 km/h (1 Bft) O-NO 0,83 h 6,2 C 5,8 km/h (2 Bft)
21.04.2016 12:00 16,5 C 20,9 C 52 % 1023,2 hPa 0,0 mm 6,8 km/h (2 Bft) O-NO 0,92 h 6,7 C 6,6 km/h (2 Bft)
21.04.2016 13:00 17,7 C 21,6 C 52 % 1023,0 hPa 0,0 mm 7,8 km/h (2 Bft) NO 0,50 h 7,8 C 12,1 km/h (2 Bft)
21.04.2016 14:00 19,3 C 23,5 C 48 % 1022,1 hPa 0,0 mm 8,0 km/h (2 Bft) NW 0,58 h 8,1 C 11,6 km/h (2 Bft)
21.04.2016 15:00 19,6 C 23,6 C 44 % 1021,3 hPa 0,0 mm 8,4 km/h (2 Bft) N-NO 0,58 h 7,0 C 11,9 km/h (2 Bft)
21.04.2016 16:00 19,1 C 24,0 C 40 % 1020,4 hPa 0,0 mm 6,5 km/h (2 Bft) N-NO 1,00 h 5,1 C 9,2 km/h (2 Bft)
21.04.2016 17:00 18,2 C 20,4 C 39 % 1019,6 hPa 0,0 mm 5,9 km/h (2 Bft) N-NO 0,42 h 4,1 C 7,6 km/h (2 Bft)
21.04.2016 18:00 17,2 C 18,4 C 41 % 1019,0 hPa 0,0 mm 8,0 km/h (2 Bft) O-NO 0,00 h 3,9 C 8,9 km/h (2 Bft)
21.04.2016 19:00 15,1 C 15,9 C 50 % 1018,4 hPa 0,0 mm 2,4 km/h (1 Bft) N-NO 0,00 h 4,8 C 2,3 km/h (1 Bft)
21.04.2016 20:00 11,7 C 11,8 C 59 % 1018,0 hPa 0,0 mm 0,5 km/h (0 Bft) SO 0,00 h 3,9 C 1,1 km/h (1 Bft)
21.04.2016 21:00 9,6 C 10,0 C 67 % 1017,9 hPa 0,0 mm 2,0 km/h (1 Bft) S-SO 0,00 h 3,7 C 1,7 km/h (1 Bft)
21.04.2016 22:00 7,8 C 7,6 C 71 % 1017,9 hPa 0,0 mm 0,2 km/h (0 Bft) N 0,00 h 2,9 C 0,0 km/h (0 Bft)
21.04.2016 23:00 6,7 C 6,4 C 76 % 1017,8 hPa 0,0 mm 0,1 km/h (0 Bft) N 0,00 h 2,8 C 0,0 km/h (0 Bft)
22.04.2016 00:00 6,5 C 6,2 C 77 % 1017,8 hPa 0,0 mm 0,2 km/h (0 Bft) N 0,00 h 2,7 C 0,9 km/h (0 Bft)
22.04.2016 01:00 6,3 C 6,2 C 79 % 1017,4 hPa 0,0 mm 2,5 km/h (1 Bft) S-SO 0,00 h 2,8 C 4,6 km/h (1 Bft)
22.04.2016 02:00 5,5 C 5,3 C 81 % 1017,3 hPa 0,0 mm 0,8 km/h (0 Bft) O-NO 0,00 h 2,5 C 0,8 km/h (0 Bft)
22.04.2016 03:00 5,4 C 5,1 C 82 % 1017,1 hPa 0,0 mm 1,0 km/h (0 Bft) SW 0,00 h 2,6 C 2,6 km/h (1 Bft)
22.04.2016 04:00 4,2 C 3,8 C 85 % 1016,8 hPa 0,0 mm 0,0 km/h (0 Bft) N 0,00 h 1,9 C 0,0 km/h (0 Bft)
22.04.2016 05:00 3,4 C 3,1 C 86 % 1016,6 hPa 0,0 mm 0,1 km/h (0 Bft) N 0,00 h 1,4 C 0,0 km/h (0 Bft)
22.04.2016 06:00 3,5 C 3,2 C 88 % 1016,7 hPa 0,0 mm 0,0 km/h (0 Bft) N 0,00 h 1,7 C 0,0 km/h (0 Bft)
22.04.2016 07:00 4,8 C 7,5 C 85 % 1016,8 hPa 0,0 mm 0,0 km/h (0 Bft) N 0,43 h 2,4 C 0,0 km/h (0 Bft)
22.04.2016 08:00 10,7 C 19,0 C 77 % 1016,9 hPa 0,0 mm 0,0 km/h (0 Bft) N 0,98 h 6,8 C 0,0 km/h (0 Bft)
22.04.2016 09:00 14,4 C 20,0 C 66 % 1017,7 hPa 0,0 mm 2,3 km/h (1 Bft) NW 1,00 h 8,1 C 5,7 km/h (1 Bft)
22.04.2016 10:00 14,6 C 18,0 C 60 % 1017,8 hPa 0,0 mm 8,4 km/h (2 Bft) W 0,50 h 7,0 C 10,9 km/h (2 Bft)
22.04.2016 11:00 15,3 C 18,3 C 59 % 1017,6 hPa 0,0 mm 11,7 km/h (2 Bft) W 0,00 h 7,2 C 17,3 km/h (3 Bft)
22.04.2016 12:00 17,4 C 21,5 C 55 % 1017,5 hPa 0,0 mm 12,6 km/h (3 Bft) W 0,67 h 8,3 C 18,1 km/h (3 Bft)
22.04.2016 13:00 18,5 C 21,7 C 51 % 1016,9 hPa 0,0 mm 13,3 km/h (3 Bft) W 0,25 h 8,3 C 18,2 km/h (3 Bft)
22.04.2016 14:00 18,2 C 21,0 C 49 % 1016,2 hPa 0,0 mm 13,1 km/h (3 Bft) NW 0,08 h 7,4 C 17,5 km/h (3 Bft)
22.04.2016 15:00 18,6 C 21,9 C 47 % 1015,1 hPa 0,0 mm 11,4 km/h (2 Bft) W-NW 0,25 h 7,1 C 13,2 km/h (3 Bft)
22.04.2016 16:00 17,0 C 18,3 C 49 % 1014,2 hPa 0,0 mm 11,9 km/h (2 Bft) NW 0,00 h 6,3 C 17,7 km/h (3 Bft)
22.04.2016 17:00 16,7 C 18,0 C 49 % 1013,7 hPa 0,0 mm 9,2 km/h (2 Bft) NW 0,00 h 5,9 C 10,2 km/h (2 Bft)
22.04.2016 18:00 15,6 C 16,4 C 53 % 1013,2 hPa 0,0 mm 2,4 km/h (1 Bft) W 0,00 h 6,1 C 3,2 km/h (1 Bft)
22.04.2016 19:00 14,0 C 14,3 C 55 % 1012,7 hPa 0,0 mm 2,3 km/h (1 Bft) S-SO 0,00 h 5,1 C 2,3 km/h (1 Bft)
22.04.2016 20:00 12,6 C 12,7 C 62 % 1012,3 hPa 0,0 mm 2,2 km/h (1 Bft) S-SO 0,00 h 5,6 C 2,2 km/h (1 Bft)
22.04.2016 21:00 11,4 C 11,6 C 68 % 1012,6 hPa 0,0 mm 2,7 km/h (1 Bft) S 0,00 h 5,8 C 2,8 km/h (1 Bft)
22.04.2016 22:00 10,4 C 10,4 C 72 % 1012,3 hPa 0,0 mm 0,2 km/h (0 Bft) N 0,00 h 5,7 C 0,2 km/h (0 Bft)
22.04.2016 23:00 8,8 C 8,7 C 76 % 1012,1 hPa 0,0 mm 1,6 km/h (1 Bft) SO 0,00 h 4,9 C 1,5 km/h (1 Bft)
23.04.2016 00:00 8,2 C 8,4 C 77 % 1011,8 hPa 0,0 mm 2,5 km/h (1 Bft) S 0,00 h 4,4 C 3,3 km/h (1 Bft)
23.04.2016 01:00 7,9 C 7,8 C 79 % 1011,3 hPa 0,0 mm 0,6 km/h (0 Bft) O-SO 0,00 h 4,5 C 1,7 km/h (1 Bft)
23.04.2016 02:00 7,4 C 7,2 C 80 % 1010,8 hPa 0,0 mm 1,4 km/h (1 Bft) S-SO 0,00 h 4,1 C 1,1 km/h (1 Bft)
23.04.2016 03:00 6,6 C 6,6 C 80 % 1010,0 hPa 0,0 mm 2,0 km/h (1 Bft) S-SO 0,00 h 3,4 C 2,8 km/h (1 Bft)
23.04.2016 04:00 6,0 C 5,8 C 83 % 1009,6 hPa 0,0 mm 0,3 km/h (0 Bft) S 0,00 h 3,4 C 0,4 km/h (0 Bft)
23.04.2016 05:00 6,0 C 5,8 C 85 % 1009,0 hPa 0,0 mm 0,1 km/h (0 Bft) N 0,00 h 3,6 C 0,0 km/h (0 Bft)
23.04.2016 06:00 5,8 C 5,7 C 84 % 1008,6 hPa 0,0 mm 0,0 km/h (0 Bft) N 0,00 h 3,3 C 0,0 km/h (0 Bft)
23.04.2016 07:00 6,5 C 6,8 C 80 % 1008,4 hPa 0,0 mm 0,0 km/h (0 Bft) N 0,00 h 3,3 C 0,0 km/h (0 Bft)
23.04.2016 08:00 8,1 C 9,5 C 78 % 1008,3 hPa 0,0 mm 0,8 km/h (0 Bft) O-SO 0,00 h 4,6 C 2,5 km/h (1 Bft)
23.04.2016 09:00 10,8 C 14,6 C 71 % 1008,3 hPa 0,0 mm 2,3 km/h (1 Bft) N-NO 0,92 h 5,7 C 4,3 km/h (1 Bft)
23.04.2016 10:00 11,9 C 15,0 C 66 % 1008,4 hPa 0,0 mm 5,8 km/h (2 Bft) N-NW 0,25 h 5,9 C 6,9 km/h (2 Bft)
23.04.2016 11:00 12,6 C 16,2 C 61 % 1008,5 hPa 0,0 mm 6,4 km/h (2 Bft) NW 0,58 h 5,4 C 9,5 km/h (2 Bft)
23.04.2016 12:00 11,8 C 13,3 C 64 % 1008,1 hPa 0,0 mm 6,8 km/h (2 Bft) W 0,00 h 5,1 C 9,1 km/h (2 Bft)
23.04.2016 13:00 11,0 C 11,3 C 68 % 1007,5 hPa 0,0 mm 6,5 km/h (2 Bft) W-SW 0,00 h 5,3 C 7,7 km/h (2 Bft)
23.04.2016 14:00 11,2 C 12,1 C 69 % 1007,0 hPa 0,0 mm 3,9 km/h (1 Bft) W-SW 0,00 h 5,8 C 4,8 km/h (1 Bft)
23.04.2016 15:00 10,7 C 11,8 C 72 % 1006,5 hPa 0,0 mm 5,4 km/h (1 Bft) W-SW 0,08 h 5,9 C 9,3 km/h (2 Bft)
23.04.2016 16:00 11,3 C 13,4 C 72 % 1005,9 hPa 0,0 mm 7,3 km/h (2 Bft) W-SW 0,00 h 6,4 C 12,2 km/h (2 Bft)
23.04.2016 17:00 11,4 C 12,4 C 70 % 1005,6 hPa 0,0 mm 8,3 km/h (2 Bft) W 0,00 h 6,1 C 12,2 km/h (2 Bft)
23.04.2016 18:00 9,0 C 8,5 C 80 % 1005,6 hPa 0,7 mm 13,2 km/h (3 Bft) W 0,00 h 5,7 C 17,7 km/h (3 Bft)
23.04.2016 19:00 6,7 C 6,2 C 85 % 1006,0 hPa 2,7 mm 14,2 km/h (3 Bft) NW 0,00 h 4,3 C 18,8 km/h (3 Bft)
23.04.2016 20:00 4,4 C 3,6 C 87 % 1007,3 hPa 1,4 mm 14,7 km/h (3 Bft) NW 0,00 h 2,4 C 17,1 km/h (3 Bft)
23.04.2016 21:00 2,0 C 1,2 C 88 % 1009,3 hPa 2,1 mm 12,4 km/h (3 Bft) W 0,00 h 0,2 C 18,8 km/h (3 Bft)
23.04.2016 22:00 0,6 C 0,3 C 89 % 1010,4 hPa 0,0 mm 4,2 km/h (1 Bft) W-SW 0,00 h -1,0 C 5,2 km/h (1 Bft)
23.04.2016 23:00 0,7 C 0,3 C 90 % 1010,8 hPa 0,0 mm 3,6 km/h (1 Bft) W 0,00 h -0,9 C 4,8 km/h (1 Bft)
24.04.2016 00:00 0,3 C -0,2 C 90 % 1011,4 hPa 0,7 mm 6,0 km/h (2 Bft) W-NW 0,00 h -1,1 C 9,2 km/h (2 Bft)
24.04.2016 01:00 0,3 C -0,0 C 89 % 1011,5 hPa 0,0 mm 0,5 km/h (0 Bft) W-NW 0,00 h -1,4 C 1,3 km/h (1 Bft)
24.04.2016 02:00 0,3 C -0,0 C 89 % 1011,3 hPa 0,0 mm 0,1 km/h (0 Bft) N 0,00 h -1,3 C 0,0 km/h (0 Bft)
24.04.2016 03:00 0,2 C -0,1 C 89 % 1011,0 hPa 0,0 mm 0,0 km/h (0 Bft) N 0,00 h -1,4 C 0,4 km/h (0 Bft)
24.04.2016 04:00 0,1 C -0,2 C 88 % 1010,9 hPa 0,0 mm 1,4 km/h (1 Bft) W-NW 0,00 h -1,6 C 1,5 km/h (1 Bft)
24.04.2016 05:00 -0,0 C -0,3 C 88 % 1010,8 hPa 0,0 mm 2,3 km/h (1 Bft) W-NW 0,00 h -1,8 C 4,0 km/h (1 Bft)
24.04.2016 06:00 -0,1 C -0,5 C 87 % 1010,7 hPa 0,0 mm 4,9 km/h (1 Bft) W-NW 0,00 h -2,0 C 6,5 km/h (2 Bft)
24.04.2016 07:00 0,0 C -0,1 C 84 % 1010,8 hPa 0,0 mm 1,6 km/h (1 Bft) W-NW 0,00 h -2,4 C 2,4 km/h (1 Bft)
24.04.2016 08:00 -0,2 C -0,1 C 84 % 1011,0 hPa 0,0 mm 1,3 km/h (1 Bft) W-NW 0,00 h -2,6 C 2,6 km/h (1 Bft)
24.04.2016 09:00 -0,0 C 0,5 C 84 % 1011,1 hPa 0,0 mm 2,0 km/h (1 Bft) W-NW 0,00 h -2,4 C 2,3 km/h (1 Bft)
24.04.2016 10:00 1,4 C 3,6 C 84 % 1011,2 hPa 0,7 mm 4,3 km/h (1 Bft) W-NW 0,00 h -1,0 C 5,9 km/h (2 Bft)
24.04.2016 11:00 2,5 C 5,1 C 81 % 1011,8 hPa 2,7 mm 7,2 km/h (2 Bft) W 0,17 h -0,4 C 8,7 km/h (2 Bft)
24.04.2016 12:00 4,0 C 8,2 C 74 % 1012,3 hPa 1,4 mm 9,0 km/h (2 Bft) W 0,67 h -0,2 C 11,0 km/h (2 Bft)
24.04.2016 13:00 2,5 C 4,2 C 75 % 1011,9 hPa 0,7 mm 7,8 km/h (2 Bft) W 0,25 h -1,5 C 9,2 km/h (2 Bft)
24.04.2016 14:00 2,5 C 4,3 C 77 % 1011,2 hPa 0,0 mm 8,2 km/h (2 Bft) W 0,00 h -1,0 C 10,4 km/h (2 Bft)
24.04.2016 15:00 2,5 C 4,0 C 76 % 1010,8 hPa 0,0 mm 10,0 km/h (2 Bft) NW 0,17 h -1,3 C 16,5 km/h (3 Bft)
24.04.2016 16:00 0,8 C 1,1 C 79 % 1010,4 hPa 0,0 mm 8,5 km/h (2 Bft) W-SW 0,00 h -2,4 C 11,2 km/h (2 Bft)
24.04.2016 17:00 1,1 C 1,3 C 80 % 1010,3 hPa 1,4 mm 8,6 km/h (2 Bft) W-SW 0,00 h -1,9 C 11,5 km/h (2 Bft)
24.04.2016 18:00 0,5 C 0,2 C 81 % 1010,5 hPa 0,0 mm 9,8 km/h (2 Bft) W-SW 0,00 h -2,4 C 16,5 km/h (3 Bft)
24.04.2016 19:00 0,4 C 0,1 C 83 % 1010,5 hPa 0,0 mm 7,0 km/h (2 Bft) W-SW 0,00 h -2,1 C 9,8 km/h (2 Bft)
24.04.2016 20:00 0,2 C -0,2 C 85 % 1010,5 hPa 0,0 mm 5,2 km/h (1 Bft) S 0,00 h -2,0 C 6,5 km/h (2 Bft)
24.04.2016 21:00 -0,3 C -0,7 C 85 % 1010,8 hPa 0,0 mm 3,1 km/h (1 Bft) SO 0,00 h -2,5 C 3,9 km/h (1 Bft)
24.04.2016 22:00 0,0 C -0,4 C 85 % 1010,7 hPa 0,0 mm 3,3 km/h (1 Bft) NW 0,00 h -2,1 C 4,3 km/h (1 Bft)
24.04.2016 23:00 -0,4 C -0,7 C 86 % 1010,7 hPa 0,0 mm 4,5 km/h (1 Bft) W 0,00 h -2,4 C 6,1 km/h (2 Bft)
Min-Datum _ 21.04.16 21.04.16 21.04.16 23.04.16 - 24.04.16 - - 19.04.16 24.04.16
_ Min-Zeit 06:05 06:05 18:00 17:35 - 22:25 - - 22:40 23:20
Minimum _ -1,5 C -1,9 C 39 % 1005,5 hPa - 0,0 km/h (0 Bft) - - -4,1 C 0,0 km/h (0 Bft)
Max-Datum _ 21.04.16 21.04.16 21.04.16 20.04.16 18.04.16 23.04.16 - 24.04.16 22.04.16 23.04.16
_ Max-Zeit 16:00 16:05 07:48 12:10 19:05 19:45 - 15:00 12:55 18:45
Maximum _ 19,9 C 24,5 C 92 % 1028,3 hPa 3,4 mm 19,7 km/h
NW (3 Bft)
- 0,08 h 8,8 C 40,8 km/h
W (6 Bft)
Durchschnitt _ 7,0 C 8,2 C 75 % 1017,4 hPa #27,5 mm 4,4 km/h (1 Bft) NW #27:20 h 2,5 C 5,8 km/h (2 Bft)